Quetta Weather



Quetta's Current Weather

Temprature 3.7o moderate rain

moderate rain

Rain: 319 %

Min Temprature3.7o
Max Temprature3.7o
Humidity92
Wind Speed1.42 m/h
Sun Rise07:18:29
Sun Set17:32:29
Current Time: 12-Dec-2019 01:32:06
Lat/Lon: 30.19, 67.02




Quetta's Geo Location



Quetta's Weather Forecast

Time Overall Temp Min Temp Max Temp Humidity Wind Speed Rain
12-Dec-2019 (Thu)
02:00:00 moderate rain 3.700 3.700 3.700 92 1.42 m/h 319 %
05:00:00 light rain 3.790 3.790 3.790 88 1.14 m/h 162 %
08:00:00 light rain 4.460 4.460 4.460 87 0.98 m/h 19 %
11:00:00 light rain 6.000 6.000 6.000 77 1.57 m/h 50 %
14:00:00 light rain 7.360 7.360 7.360 65 3.55 m/h 181 %
17:00:00 light rain 6.160 6.160 6.160 68 4.03 m/h 119 %
20:00:00 light rain 4.770 4.770 4.770 74 2.76 m/h 63 %
23:00:00 light snow 3.820 3.820 3.820 79 1.99 m/h 0 %
13-Dec-2019 (Fri)
02:00:00 light snow 2.980 2.980 2.980 79 2.15 m/h 0 %
05:00:00 light snow 1.960 1.960 1.960 86 2.51 m/h 0 %
08:00:00 light snow 1.310 1.310 1.310 88 3.24 m/h 0 %
11:00:00 clear sky 3.980 3.980 3.980 57 4.45 m/h 0 %
14:00:00 clear sky 5.420 5.420 5.420 42 5.29 m/h 0 %
17:00:00 clear sky 4.340 4.340 4.340 47 3.7 m/h 0 %
20:00:00 clear sky 2.900 2.900 2.900 57 2.63 m/h 0 %
23:00:00 clear sky 1.910 1.910 1.910 61 1.78 m/h 0 %
14-Dec-2019 (Sat)
02:00:00 clear sky 1.280 1.280 1.280 59 1.41 m/h 0 %
05:00:00 clear sky 0.580 0.580 0.580 58 0.73 m/h 0 %
08:00:00 clear sky 1.440 1.440 1.440 52 0.16 m/h 0 %
11:00:00 scattered clouds 6.050 6.050 6.050 30 1.39 m/h 0 %
14:00:00 overcast clouds 8.300 8.300 8.300 24 1.85 m/h 0 %
17:00:00 overcast clouds 7.310 7.310 7.310 43 2.2 m/h 0 %
20:00:00 broken clouds 5.060 5.060 5.060 64 2.21 m/h 0 %
23:00:00 broken clouds 3.740 3.740 3.740 80 1.03 m/h 0 %
15-Dec-2019 (Sun)
02:00:00 broken clouds 3.360 3.360 3.360 80 0.27 m/h 0 %
05:00:00 broken clouds 3.400 3.400 3.400 74 1.11 m/h 0 %
08:00:00 broken clouds 2.870 2.870 2.870 77 0.81 m/h 0 %
11:00:00 scattered clouds 5.390 5.390 5.390 58 1.27 m/h 0 %
14:00:00 scattered clouds 7.210 7.210 7.210 51 3.03 m/h 0 %
17:00:00 broken clouds 6.950 6.950 6.950 52 3.1 m/h 0 %
20:00:00 scattered clouds 5.070 5.070 5.070 70 1.93 m/h 0 %
23:00:00 few clouds 3.590 3.590 3.590 79 1.18 m/h 0 %
16-Dec-2019 (Mon)
02:00:00 clear sky 2.450 2.450 2.450 83 1.12 m/h 0 %
05:00:00 clear sky 1.450 1.450 1.450 87 1.04 m/h 0 %
08:00:00 clear sky 1.550 1.550 1.550 85 0.85 m/h 0 %
11:00:00 clear sky 4.810 4.810 4.810 60 1.47 m/h 0 %
14:00:00 clear sky 7.170 7.170 7.170 46 3.11 m/h 0 %
17:00:00 clear sky 6.700 6.700 6.700 45 3.31 m/h 0 %
20:00:00 clear sky 4.520 4.520 4.520 61 1.52 m/h 0 %
23:00:00 clear sky 3.060 3.060 3.060 69 1.46 m/h 0 %

Famous Cities (61)